createdAt,value
2019-01-14T00:00:57.835Z,6.98
2019-01-14T00:01:57.815Z,7.02
2019-01-14T00:02:57.801Z,7.07
2019-01-14T00:03:57.791Z,7.09
2019-01-14T00:05:00.474Z,7.15
2019-01-14T00:05:57.766Z,7.09
2019-01-14T00:06:57.749Z,7.1
2019-01-14T00:07:57.739Z,7.07
2019-01-14T00:08:57.725Z,7.1
2019-01-14T00:09:57.713Z,7.15
2019-01-14T00:10:57.698Z,7.12
2019-01-14T00:11:57.685Z,7.13
2019-01-14T00:12:57.691Z,7.15
2019-01-14T00:13:57.661Z,7.24
2019-01-14T00:14:57.646Z,7.25
2019-01-14T00:15:57.634Z,7.28
2019-01-14T00:16:59.327Z,7.23
2019-01-14T00:17:57.616Z,7.28
2019-01-14T00:18:57.356Z,7.35
2019-01-14T00:19:57.585Z,7.27
2019-01-14T00:20:57.572Z,7.28
2019-01-14T00:21:57.560Z,7.34
2019-01-14T00:22:57.544Z,7.25
2019-01-14T00:23:57.531Z,7.27
2019-01-14T00:24:57.523Z,7.24
2019-01-14T00:25:57.509Z,7.34
2019-01-14T00:26:57.500Z,7.34
2019-01-14T00:27:57.483Z,7.27
2019-01-14T00:28:57.477Z,7.28
2019-01-14T00:29:57.459Z,7.16
2019-01-14T00:30:57.447Z,7.21
2019-01-14T00:31:57.432Z,7.13
2019-01-14T00:32:57.424Z,7.17
2019-01-14T00:33:57.414Z,7.21
2019-01-14T00:34:57.397Z,7.17
2019-01-14T00:35:57.387Z,7.17
2019-01-14T00:36:57.366Z,7.13
2019-01-14T00:37:57.355Z,7.21
2019-01-14T00:38:57.343Z,7.16
2019-01-14T00:39:57.330Z,7.2
2019-01-14T00:40:57.316Z,7.13
2019-01-14T00:41:57.309Z,7.13
2019-01-14T00:42:57.291Z,7.1
2019-01-14T00:43:57.283Z,7.06
2019-01-14T00:44:57.266Z,7.05
2019-01-14T00:45:57.252Z,7.13
2019-01-14T00:46:57.239Z,7.12
2019-01-14T00:47:57.226Z,7.07
2019-01-14T00:48:57.214Z,7.03
2019-01-14T00:49:57.205Z,6.85
2019-01-14T00:50:57.190Z,6.67
2019-01-14T00:51:57.177Z,6.49
2019-01-14T00:52:57.161Z,6.31
2019-01-14T00:53:57.156Z,6.14
2019-01-14T00:54:57.138Z,5.99
2019-01-14T00:55:57.123Z,5.86
2019-01-14T00:56:57.110Z,5.79
2019-01-14T00:57:57.098Z,5.72
2019-01-14T00:58:57.085Z,5.68
2019-01-14T00:59:57.074Z,5.65
2019-01-14T01:00:57.059Z,5.63
2019-01-14T01:01:57.043Z,5.53
2019-01-14T01:02:57.033Z,5.71
2019-01-14T01:03:57.020Z,5.58
2019-01-14T01:04:57.008Z,5.56
2019-01-14T01:05:56.989Z,5.58
2019-01-14T01:06:56.978Z,5.46
2019-01-14T01:07:56.967Z,5.45
2019-01-14T01:08:56.952Z,5.42
2019-01-14T01:09:56.935Z,5.45
2019-01-14T01:10:56.928Z,5.39
2019-01-14T01:11:56.911Z,5.33
2019-01-14T01:12:56.956Z,5.33
2019-01-14T01:13:56.881Z,5.33
2019-01-14T01:14:56.872Z,5.3
2019-01-14T01:15:56.854Z,5.35
2019-01-14T01:16:56.853Z,5.35
2019-01-14T01:17:56.827Z,5.27
2019-01-14T01:18:56.811Z,5.35
2019-01-14T01:19:56.801Z,5.3
2019-01-14T01:20:56.788Z,5.31
2019-01-14T01:21:56.770Z,5.35
2019-01-14T01:22:56.754Z,5.33
2019-01-14T01:23:56.741Z,5.39
2019-01-14T01:24:56.728Z,5.36
2019-01-14T01:25:56.714Z,5.39
2019-01-14T01:26:56.700Z,5.39
2019-01-14T01:27:56.686Z,5.46
2019-01-14T01:28:56.673Z,5.53
2019-01-14T01:29:56.663Z,5.48
2019-01-14T01:30:56.643Z,5.54
2019-01-14T01:31:56.636Z,5.54
2019-01-14T01:32:56.623Z,5.63
2019-01-14T01:33:56.601Z,5.61
2019-01-14T01:34:56.592Z,5.71
2019-01-14T01:35:56.576Z,5.63
2019-01-14T01:36:56.562Z,5.6
2019-01-14T01:37:56.549Z,5.65
2019-01-14T01:38:56.532Z,5.72
2019-01-14T01:39:56.520Z,5.65
2019-01-14T01:40:56.506Z,5.63
2019-01-14T01:41:56.495Z,5.61
2019-01-14T01:42:56.485Z,5.74
2019-01-14T01:43:56.469Z,5.71
2019-01-14T01:44:56.455Z,5.67
2019-01-14T01:45:56.438Z,5.72
2019-01-14T01:46:56.423Z,5.68
2019-01-14T01:47:56.411Z,5.72
2019-01-14T01:48:56.400Z,5.72
2019-01-14T01:49:56.391Z,5.75
2019-01-14T01:50:56.378Z,5.82
2019-01-14T01:51:56.360Z,5.71
2019-01-14T01:52:56.342Z,5.89
2019-01-14T01:53:56.331Z,5.82
2019-01-14T01:54:56.318Z,5.82
2019-01-14T01:55:56.301Z,5.85
2019-01-14T01:56:56.289Z,5.83
2019-01-14T01:57:56.274Z,5.93
2019-01-14T01:58:56.265Z,5.9
2019-01-14T01:59:56.248Z,5.91
2019-01-14T02:00:56.233Z,5.97
2019-01-14T02:01:56.221Z,5.99
2019-01-14T02:02:56.208Z,5.96
2019-01-14T02:03:56.195Z,5.99
2019-01-14T02:04:56.177Z,6.03
2019-01-14T02:05:56.165Z,6.03
2019-01-14T02:06:56.155Z,5.99
2019-01-14T02:07:56.142Z,5.99
2019-01-14T02:08:56.866Z,6.06
2019-01-14T02:09:56.113Z,5.99
2019-01-14T02:10:56.099Z,6.06
2019-01-14T02:11:56.086Z,5.97
2019-01-14T02:12:56.071Z,5.96
2019-01-14T02:13:56.077Z,5.97
2019-01-14T02:14:56.061Z,5.91
2019-01-14T02:15:56.033Z,5.94
2019-01-14T02:16:56.017Z,5.89
2019-01-14T02:17:56.002Z,5.86
2019-01-14T02:18:55.993Z,5.91
2019-01-14T02:19:55.975Z,5.94
2019-01-14T02:20:55.964Z,5.94
2019-01-14T02:21:55.948Z,6.03
2019-01-14T02:22:56.255Z,5.86
2019-01-14T02:23:55.918Z,5.99
2019-01-14T02:24:55.907Z,6
2019-01-14T02:25:55.894Z,5.97
2019-01-14T02:26:55.880Z,5.96
2019-01-14T02:27:55.867Z,5.99
2019-01-14T02:28:55.852Z,6.01
2019-01-14T02:29:55.839Z,6.08
2019-01-14T02:30:55.828Z,6.08
2019-01-14T02:31:55.817Z,6.04
2019-01-14T02:32:55.806Z,6.08
2019-01-14T02:33:55.795Z,6.09
2019-01-14T02:34:55.771Z,6
2019-01-14T02:35:55.764Z,6.11
2019-01-14T02:36:55.503Z,6.17
2019-01-14T02:37:55.728Z,5.97
2019-01-14T02:38:55.719Z,6.06
2019-01-14T02:39:55.704Z,6.06
2019-01-14T02:40:55.691Z,6.01
2019-01-14T02:41:55.677Z,6.09
2019-01-14T02:42:55.421Z,6.06
2019-01-14T02:43:55.652Z,6.04
2019-01-14T02:44:55.640Z,5.99
2019-01-14T02:45:55.630Z,5.96
2019-01-14T02:46:55.611Z,6.01
2019-01-14T02:47:55.599Z,6.04
2019-01-14T02:48:55.595Z,6.06
2019-01-14T02:49:55.578Z,6.09
2019-01-14T02:50:55.569Z,6.04
2019-01-14T02:51:55.555Z,6.08
2019-01-14T02:52:55.539Z,5.96
2019-01-14T02:53:55.513Z,5.97
2019-01-14T02:54:55.503Z,5.97
2019-01-14T02:55:55.491Z,5.97
2019-01-14T02:56:55.477Z,5.93
2019-01-14T02:57:55.459Z,5.9
2019-01-14T02:58:55.209Z,5.81
2019-01-14T02:59:56.104Z,5.85
2019-01-14T03:00:55.416Z,5.9
2019-01-14T03:01:55.521Z,5.85
2019-01-14T03:02:55.160Z,5.86
2019-01-14T03:03:55.378Z,5.85
2019-01-14T03:04:55.364Z,5.91
2019-01-14T03:05:55.347Z,5.85
2019-01-14T03:07:02.429Z,5.9
2019-01-14T03:07:55.322Z,5.9
2019-01-14T03:08:55.306Z,5.89
2019-01-14T03:09:55.295Z,5.89
2019-01-14T03:10:55.289Z,5.96
2019-01-14T03:11:55.300Z,5.93
2019-01-14T03:12:55.254Z,5.9
2019-01-14T03:13:55.242Z,5.96
2019-01-14T03:14:55.227Z,5.93
2019-01-14T03:15:55.215Z,5.93
2019-01-14T03:16:55.206Z,5.99
2019-01-14T03:17:55.186Z,5.94
2019-01-14T03:18:55.177Z,5.89
2019-01-14T03:19:55.157Z,5.94
2019-01-14T03:20:55.144Z,5.86
2019-01-14T03:21:55.137Z,5.93
2019-01-14T03:22:55.120Z,5.94
2019-01-14T03:23:55.103Z,5.89
2019-01-14T03:24:55.086Z,5.83
2019-01-14T03:26:02.976Z,5.93
2019-01-14T03:26:55.065Z,5.91
2019-01-14T03:27:55.062Z,5.91
2019-01-14T03:28:55.033Z,5.91
2019-01-14T03:29:55.022Z,5.97
2019-01-14T03:30:55.012Z,6.06
2019-01-14T03:31:55.033Z,6
2019-01-14T03:32:55.037Z,5.96
2019-01-14T03:33:54.972Z,5.91
2019-01-14T03:34:54.954Z,5.94
2019-01-14T03:35:54.701Z,5.97
2019-01-14T03:36:54.936Z,5.89
2019-01-14T03:37:54.910Z,5.96
2019-01-14T03:38:54.898Z,6.01
2019-01-14T03:39:54.887Z,5.9
2019-01-14T03:40:54.872Z,5.93
2019-01-14T03:41:54.858Z,5.93
2019-01-14T03:42:54.847Z,5.91
2019-01-14T03:43:54.833Z,5.86
2019-01-14T03:44:54.817Z,5.9
2019-01-14T03:45:54.803Z,5.85
2019-01-14T03:46:54.794Z,5.97
2019-01-14T03:47:54.776Z,5.99
2019-01-14T03:48:54.762Z,5.83
2019-01-14T03:49:54.749Z,5.94
2019-01-14T03:50:54.739Z,5.85
2019-01-14T03:51:54.731Z,5.86
2019-01-14T03:52:54.707Z,5.85
2019-01-14T03:53:54.696Z,5.89
2019-01-14T03:54:54.680Z,5.82
2019-01-14T03:55:54.671Z,5.89
2019-01-14T03:56:54.651Z,5.85
2019-01-14T03:57:54.643Z,5.85
2019-01-14T03:58:54.625Z,5.86
2019-01-14T03:59:54.623Z,5.91
2019-01-14T04:00:54.599Z,5.82
2019-01-14T04:01:54.582Z,5.97
2019-01-14T04:02:54.579Z,5.9
2019-01-14T04:03:54.567Z,5.82
2019-01-14T04:04:54.539Z,5.91
2019-01-14T04:05:54.530Z,5.85
2019-01-14T04:06:54.514Z,5.89
2019-01-14T04:07:54.500Z,5.89
2019-01-14T04:08:54.490Z,5.83
2019-01-14T04:09:54.475Z,5.83
2019-01-14T04:10:54.464Z,5.91
2019-01-14T04:11:54.459Z,5.93
2019-01-14T04:12:54.442Z,5.94
2019-01-14T04:13:54.437Z,5.96
2019-01-14T04:14:54.414Z,5.9
2019-01-14T04:15:54.396Z,5.97
2019-01-14T04:16:54.379Z,5.93
2019-01-14T04:17:54.362Z,5.85
2019-01-14T04:18:54.359Z,5.89
2019-01-14T04:19:54.339Z,5.81
2019-01-14T04:20:54.324Z,5.76
2019-01-14T04:21:54.315Z,5.89
2019-01-14T04:22:54.308Z,5.75
2019-01-14T04:23:54.053Z,5.81
2019-01-14T04:24:54.030Z,5.81
2019-01-14T04:25:54.259Z,5.82
2019-01-14T04:26:54.240Z,5.89
2019-01-14T04:27:54.230Z,5.75
2019-01-14T04:28:54.215Z,5.79
2019-01-14T04:29:54.202Z,5.67
2019-01-14T04:30:54.187Z,5.63
2019-01-14T04:31:54.171Z,5.51
2019-01-14T04:32:54.158Z,5.58
2019-01-14T04:33:54.153Z,5.57
2019-01-14T04:34:54.148Z,5.63
2019-01-14T04:35:54.126Z,5.48
2019-01-14T04:36:54.108Z,5.54
2019-01-14T04:37:54.094Z,5.63
2019-01-14T04:38:54.076Z,5.58
2019-01-14T04:39:54.059Z,5.64
2019-01-14T04:40:54.051Z,5.64
2019-01-14T04:41:54.038Z,5.63
2019-01-14T04:42:54.020Z,5.58
2019-01-14T04:43:54.004Z,5.6
2019-01-14T04:44:53.992Z,5.58
2019-01-14T04:45:53.979Z,5.49
2019-01-14T04:46:53.974Z,5.56
2019-01-14T04:47:53.949Z,5.61
2019-01-14T04:48:53.940Z,5.54
2019-01-14T04:49:53.931Z,5.43
2019-01-14T04:50:53.908Z,5.39
2019-01-14T04:51:53.897Z,5.36
2019-01-14T04:52:53.912Z,5.21
2019-01-14T04:53:53.864Z,5.22
2019-01-14T04:54:53.852Z,5.12
2019-01-14T04:55:53.836Z,5.09
2019-01-14T04:56:53.822Z,4.97
2019-01-14T04:57:53.815Z,4.88
2019-01-14T04:58:53.811Z,4.78
2019-01-14T04:59:53.781Z,4.69
2019-01-14T05:00:53.768Z,4.73
2019-01-14T05:01:53.752Z,4.62
2019-01-14T05:02:53.750Z,4.59
2019-01-14T05:03:53.738Z,4.65
2019-01-14T05:04:53.720Z,4.5
2019-01-14T05:05:53.696Z,4.5
2019-01-14T05:06:53.690Z,4.42
2019-01-14T05:07:53.673Z,4.3
2019-01-14T05:08:53.665Z,4.32
2019-01-14T05:09:53.641Z,4.24
2019-01-14T05:10:53.630Z,4.18
2019-01-14T05:11:53.610Z,4.14
2019-01-14T05:12:53.620Z,4.12
2019-01-14T05:13:53.585Z,4.11
2019-01-14T05:14:53.568Z,4.05
2019-01-14T05:15:53.571Z,4.05
2019-01-14T05:16:53.536Z,3.97
2019-01-14T05:17:53.521Z,4
2019-01-14T05:18:53.510Z,3.88
2019-01-14T05:19:53.497Z,3.72
2019-01-14T05:20:53.480Z,3.78
2019-01-14T05:21:53.482Z,3.75
2019-01-14T05:22:53.447Z,3.7
2019-01-14T05:23:53.431Z,3.72
2019-01-14T05:24:53.417Z,3.69
2019-01-14T05:25:53.407Z,3.68
2019-01-14T05:26:53.397Z,3.66
2019-01-14T05:27:53.142Z,3.65
2019-01-14T05:28:53.358Z,3.7
2019-01-14T05:29:53.349Z,3.55
2019-01-14T05:30:53.332Z,3.68
2019-01-14T05:31:53.313Z,3.69
2019-01-14T05:32:53.299Z,3.68
2019-01-14T05:33:53.296Z,3.73
2019-01-14T05:34:53.281Z,3.7
2019-01-14T05:35:53.249Z,3.75
2019-01-14T05:36:53.240Z,3.73
2019-01-14T05:37:53.219Z,3.83
2019-01-14T05:38:53.203Z,3.83
2019-01-14T05:39:53.203Z,3.79
2019-01-14T05:40:53.175Z,3.75
2019-01-14T05:41:53.163Z,3.73
2019-01-14T05:42:53.144Z,3.91
2019-01-14T05:43:53.128Z,3.93
2019-01-14T05:44:53.130Z,3.97
2019-01-14T05:45:53.113Z,3.96
2019-01-14T05:46:53.081Z,4.08
2019-01-14T05:47:53.070Z,4.08
2019-01-14T05:48:53.052Z,4.12
2019-01-14T05:49:53.043Z,4.11
2019-01-14T05:50:53.022Z,4.15
2019-01-14T05:51:53.008Z,4.11
2019-01-14T05:52:52.991Z,4.05
2019-01-14T05:53:53.212Z,4.2
2019-01-14T05:54:52.968Z,4.14
2019-01-14T05:55:52.947Z,4.24
2019-01-14T05:56:52.930Z,4.23
2019-01-14T05:57:52.968Z,4.33
2019-01-14T05:58:52.898Z,4.3
2019-01-14T05:59:52.901Z,4.32
2019-01-14T06:00:52.880Z,4.37
2019-01-14T06:01:52.859Z,4.36
2019-01-14T06:02:52.914Z,4.36
2019-01-14T06:03:52.828Z,4.4
2019-01-14T06:04:52.809Z,4.41
2019-01-14T06:05:52.798Z,4.44
2019-01-14T06:06:52.784Z,4.44
2019-01-14T06:07:52.767Z,4.44
2019-01-14T06:08:52.767Z,4.37
2019-01-14T06:09:52.737Z,4.4
2019-01-14T06:10:52.721Z,4.41
2019-01-14T06:11:52.707Z,4.36
2019-01-14T06:12:52.701Z,4.42
2019-01-14T06:13:52.675Z,4.3
2019-01-14T06:14:52.661Z,4.41
2019-01-14T06:15:52.652Z,4.34
2019-01-14T06:16:52.633Z,4.34
2019-01-14T06:17:52.620Z,4.4
2019-01-14T06:18:52.599Z,4.4
2019-01-14T06:19:52.587Z,4.34
2019-01-14T06:20:52.569Z,4.41
2019-01-14T06:21:52.563Z,4.42
2019-01-14T06:22:52.544Z,4.44
2019-01-14T06:23:52.528Z,4.45
2019-01-14T06:24:52.520Z,4.42
2019-01-14T06:25:52.510Z,4.34
2019-01-14T06:26:52.482Z,4.3
2019-01-14T06:27:52.476Z,4.23
2019-01-14T06:28:52.452Z,4.3
2019-01-14T06:29:52.438Z,4.26
2019-01-14T06:30:52.424Z,4.26
2019-01-14T06:31:52.410Z,4.14
2019-01-14T06:32:52.396Z,4.11
2019-01-14T06:33:52.388Z,4.12
2019-01-14T06:34:52.367Z,4.12
2019-01-14T06:35:52.354Z,3.97
2019-01-14T06:36:52.097Z,4.08
2019-01-14T06:37:57.249Z,4.02
2019-01-14T06:38:52.307Z,3.96
2019-01-14T06:39:52.292Z,3.93
2019-01-14T06:40:52.276Z,3.96
2019-01-14T06:41:52.262Z,3.94
2019-01-14T06:42:52.265Z,4.02
2019-01-14T06:43:52.233Z,4.06
2019-01-14T06:44:52.217Z,4.05
2019-01-14T06:45:52.201Z,4.11
2019-01-14T06:46:52.186Z,4.12
2019-01-14T06:47:52.170Z,4.05
2019-01-14T06:48:52.157Z,4.11
2019-01-14T06:49:52.141Z,4.22
2019-01-14T06:50:52.129Z,4.15
2019-01-14T06:51:52.120Z,4.27
2019-01-14T06:52:52.097Z,4.26
2019-01-14T06:53:52.137Z,4.24
2019-01-14T06:54:52.069Z,4.32
2019-01-14T06:55:52.053Z,4.41
2019-01-14T06:56:52.044Z,4.32
2019-01-14T06:57:52.019Z,4.33
2019-01-14T06:58:52.007Z,4.3
2019-01-14T06:59:51.990Z,4.41
2019-01-14T07:00:51.977Z,4.42
2019-01-14T07:01:51.973Z,4.44
2019-01-14T07:02:51.945Z,4.44
2019-01-14T07:03:51.935Z,4.47
2019-01-14T07:04:51.919Z,4.47
2019-01-14T07:05:51.905Z,4.37
2019-01-14T07:06:51.889Z,4.41
2019-01-14T07:07:51.874Z,4.47
2019-01-14T07:08:51.858Z,4.48
2019-01-14T07:09:51.605Z,4.5
2019-01-14T07:10:51.829Z,4.5
2019-01-14T07:11:51.819Z,4.47
2019-01-14T07:12:51.799Z,4.48
2019-01-14T07:13:51.545Z,4.47
2019-01-14T07:14:51.769Z,4.44
2019-01-14T07:15:51.755Z,4.42
2019-01-14T07:16:51.750Z,4.36
2019-01-14T07:17:53.050Z,4.36
2019-01-14T07:18:51.714Z,4.24
2019-01-14T07:19:51.699Z,4.24
2019-01-14T07:20:51.679Z,4.23
2019-01-14T07:21:51.672Z,4.06
2019-01-14T07:22:51.653Z,3.98
2019-01-14T07:23:51.638Z,3.96
2019-01-14T07:24:51.621Z,3.91
2019-01-14T07:25:51.614Z,3.98
2019-01-14T07:26:51.605Z,3.86
2019-01-14T07:27:51.585Z,3.8
2019-01-14T07:28:51.561Z,3.76
2019-01-14T07:29:51.546Z,3.66
2019-01-14T07:30:51.534Z,3.7
2019-01-14T07:31:51.514Z,3.68
2019-01-14T07:32:51.500Z,3.72
2019-01-14T07:33:51.486Z,3.62
2019-01-14T07:34:51.475Z,3.61
2019-01-14T07:35:51.456Z,3.55
2019-01-14T07:36:51.439Z,3.61
2019-01-14T07:37:51.425Z,3.48
2019-01-14T07:38:51.411Z,3.55
2019-01-14T07:39:51.401Z,3.54
2019-01-14T07:40:51.381Z,3.48
2019-01-14T07:41:51.365Z,3.47
2019-01-14T07:42:51.349Z,3.48
2019-01-14T07:43:51.334Z,3.51
2019-01-14T07:44:51.319Z,3.33
2019-01-14T07:45:51.930Z,3.36
2019-01-14T07:46:51.292Z,3.39
2019-01-14T07:47:51.275Z,3.51
2019-01-14T07:48:51.259Z,3.51
2019-01-14T07:49:51.243Z,3.5
2019-01-14T07:50:51.226Z,3.42
2019-01-14T07:51:51.220Z,3.51
2019-01-14T07:52:51.248Z,3.51
2019-01-14T07:53:51.184Z,3.61
2019-01-14T07:54:51.168Z,3.66
2019-01-14T07:55:51.151Z,3.6
2019-01-14T07:56:51.136Z,3.6
2019-01-14T07:57:51.132Z,3.66
2019-01-14T07:58:51.107Z,3.65
2019-01-14T07:59:51.092Z,3.6
2019-01-14T08:00:51.076Z,3.57
2019-01-14T08:01:51.061Z,3.6
2019-01-14T08:02:51.049Z,3.61
2019-01-14T08:03:51.033Z,3.62
2019-01-14T08:04:51.015Z,3.62
2019-01-14T08:05:51.005Z,3.68
2019-01-14T08:06:50.983Z,3.62
2019-01-14T08:07:50.975Z,3.58
2019-01-14T08:08:50.952Z,3.61
2019-01-14T08:09:50.945Z,3.65
2019-01-14T08:10:50.925Z,3.72
2019-01-14T08:11:50.911Z,3.72
2019-01-14T08:12:50.899Z,3.73
2019-01-14T08:13:50.880Z,3.72
2019-01-14T08:14:50.864Z,3.73
2019-01-14T08:15:50.850Z,3.78
2019-01-14T08:16:50.836Z,3.83
2019-01-14T08:17:50.821Z,3.83
2019-01-14T08:18:50.806Z,3.98
2019-01-14T08:19:50.788Z,3.94
2019-01-14T08:20:50.534Z,4
2019-01-14T08:21:50.758Z,4.02
2019-01-14T08:22:50.755Z,4.15
2019-01-14T08:23:50.727Z,4.08
2019-01-14T08:24:50.717Z,4.23
2019-01-14T08:25:50.698Z,4.18
2019-01-14T08:26:50.683Z,4.15
2019-01-14T08:27:50.691Z,4.23
2019-01-14T08:28:50.654Z,4.26
2019-01-14T08:29:50.638Z,4.3
2019-01-14T08:30:50.625Z,4.27
2019-01-14T08:31:50.614Z,4.27
2019-01-14T08:32:50.600Z,4.36
2019-01-14T08:33:50.338Z,4.36
2019-01-14T08:34:50.567Z,4.42
2019-01-14T08:35:50.549Z,4.34
2019-01-14T08:36:50.549Z,4.54
2019-01-14T08:37:50.524Z,4.5
2019-01-14T08:38:50.507Z,4.52
2019-01-14T08:39:50.491Z,4.54
2019-01-14T08:40:50.477Z,4.47
2019-01-14T08:41:50.464Z,4.41
2019-01-14T08:42:50.453Z,4.47
2019-01-14T08:43:50.436Z,4.48
2019-01-14T08:44:50.420Z,4.52
2019-01-14T08:45:50.413Z,4.52
2019-01-14T08:46:50.392Z,4.58
2019-01-14T08:47:50.376Z,4.37
2019-01-14T08:48:53.432Z,4.36
2019-01-14T08:49:50.350Z,4.36
2019-01-14T08:50:50.341Z,4.42
2019-01-14T08:51:50.323Z,4.4
2019-01-14T08:52:50.302Z,4.41
2019-01-14T08:53:50.291Z,4.37
2019-01-14T08:54:50.277Z,4.32
2019-01-14T08:55:50.267Z,4.37
2019-01-14T08:56:50.305Z,4.44
2019-01-14T08:57:56.829Z,4.37
2019-01-14T08:58:50.219Z,4.26
2019-01-14T08:59:50.208Z,4.24
2019-01-14T09:00:50.193Z,4.29
2019-01-14T09:01:50.178Z,4.11
2019-01-14T09:02:50.161Z,4.24
2019-01-14T09:03:50.144Z,4.15
2019-01-14T09:04:50.131Z,4.09
2019-01-14T09:05:50.117Z,4.09
2019-01-14T09:06:50.099Z,4.06
2019-01-14T09:07:50.090Z,4.11
2019-01-14T09:08:50.073Z,4.05
2019-01-14T09:09:51.547Z,4.05
2019-01-14T09:10:50.051Z,4.06
2019-01-14T09:11:50.029Z,4.02
2019-01-14T09:12:50.014Z,4
2019-01-14T09:13:50.002Z,3.96
2019-01-14T09:14:49.983Z,3.94
2019-01-14T09:15:49.972Z,3.94
2019-01-14T09:16:49.973Z,3.96
2019-01-14T09:17:49.942Z,3.96
2019-01-14T09:18:49.925Z,3.88
2019-01-14T09:19:49.913Z,3.9
2019-01-14T09:20:49.900Z,3.87
2019-01-14T09:21:49.883Z,3.91
2019-01-14T09:22:49.868Z,3.75
2019-01-14T09:23:49.854Z,3.79
2019-01-14T09:24:49.838Z,3.73
2019-01-14T09:25:56.225Z,3.83
2019-01-14T09:26:49.855Z,3.78
2019-01-14T09:27:49.795Z,3.83
2019-01-14T09:28:49.782Z,3.8
2019-01-14T09:29:49.766Z,3.75
2019-01-14T09:30:49.746Z,3.73
2019-01-14T09:31:49.501Z,3.87
2019-01-14T09:32:49.724Z,3.88
2019-01-14T09:33:49.708Z,3.94
2019-01-14T09:34:49.694Z,3.87
2019-01-14T09:35:49.673Z,3.98
2019-01-14T09:36:49.683Z,3.91
2019-01-14T09:37:49.650Z,3.9
2019-01-14T09:38:49.637Z,3.93
2019-01-14T09:39:49.619Z,3.98
2019-01-14T09:40:49.599Z,4.09
2019-01-14T09:41:49.586Z,4
2019-01-14T09:42:49.325Z,4.14
2019-01-14T09:43:49.562Z,4.08
2019-01-14T09:44:49.545Z,4.09
2019-01-14T09:45:49.529Z,4.12
2019-01-14T09:46:49.513Z,4.18
2019-01-14T09:47:49.496Z,4.2
2019-01-14T09:48:49.483Z,4.26
2019-01-14T09:49:50.463Z,4.26
2019-01-14T09:50:49.460Z,4.26
2019-01-14T09:51:49.441Z,4.26
2019-01-14T09:52:49.426Z,4.29
2019-01-14T09:53:49.409Z,4.34
2019-01-14T09:54:49.393Z,4.33
2019-01-14T09:55:49.377Z,4.42
2019-01-14T09:56:49.374Z,4.45
2019-01-14T09:57:49.358Z,4.42
2019-01-14T09:58:49.335Z,4.4
2019-01-14T09:59:49.324Z,4.48
2019-01-14T10:00:49.306Z,4.47
2019-01-14T10:01:49.290Z,4.5
2019-01-14T10:02:49.277Z,4.59
2019-01-14T10:03:49.266Z,4.47
2019-01-14T10:04:49.283Z,4.5
2019-01-14T10:05:49.244Z,4.5
2019-01-14T10:06:49.221Z,4.62
2019-01-14T10:07:49.205Z,4.65
2019-01-14T10:08:49.189Z,4.66
2019-01-14T10:09:48.947Z,4.67
2019-01-14T10:10:49.162Z,4.62
2019-01-14T10:11:49.153Z,4.65
2019-01-14T10:12:49.136Z,4.7
2019-01-14T10:13:49.119Z,4.75
2019-01-14T10:14:49.107Z,4.65
2019-01-14T10:15:49.093Z,4.72
2019-01-14T10:16:49.077Z,4.67
2019-01-14T10:17:49.062Z,4.7
2019-01-14T10:18:49.046Z,4.82
2019-01-14T10:19:49.030Z,4.91
2019-01-14T10:20:50.042Z,4.99
2019-01-14T10:21:49.010Z,5.04
2019-01-14T10:22:48.991Z,5.15
2019-01-14T10:23:48.974Z,5.1
2019-01-14T10:24:48.963Z,5.24
2019-01-14T10:25:48.948Z,5.22
2019-01-14T10:26:48.934Z,5.25
2019-01-14T10:27:48.921Z,5.39
2019-01-14T10:28:48.904Z,5.38
2019-01-14T10:29:48.891Z,5.46
2019-01-14T10:30:48.877Z,5.45
2019-01-14T10:31:48.865Z,5.56
2019-01-14T10:32:48.855Z,5.63
2019-01-14T10:33:48.837Z,5.64
2019-01-14T10:34:48.821Z,5.54
2019-01-14T10:35:48.810Z,5.53
2019-01-14T10:36:48.803Z,5.72
2019-01-14T10:37:48.786Z,5.75
2019-01-14T10:38:55.173Z,5.71
2019-01-14T10:39:48.755Z,5.76
2019-01-14T10:40:48.742Z,5.74
2019-01-14T10:41:48.734Z,5.76
2019-01-14T10:42:48.714Z,5.68
2019-01-14T10:43:48.702Z,5.68
2019-01-14T10:44:48.691Z,5.74
2019-01-14T10:45:48.680Z,5.72
2019-01-14T10:46:48.666Z,5.76
2019-01-14T10:47:48.701Z,5.75
2019-01-14T10:48:48.635Z,5.75
2019-01-14T10:49:48.624Z,5.78
2019-01-14T10:50:48.614Z,5.76
2019-01-14T10:51:48.597Z,5.83
2019-01-14T10:52:48.587Z,5.76
2019-01-14T10:53:48.870Z,5.82
2019-01-14T10:54:48.572Z,5.83
2019-01-14T10:55:48.544Z,5.81
2019-01-14T10:56:48.984Z,5.9
2019-01-14T10:57:48.519Z,5.9
2019-01-14T10:58:48.506Z,5.85
2019-01-14T10:59:48.497Z,5.91
2019-01-14T11:00:48.479Z,5.86
2019-01-14T11:01:48.465Z,5.83
2019-01-14T11:02:52.642Z,5.85
2019-01-14T11:03:48.437Z,5.99
2019-01-14T11:04:48.426Z,5.97
2019-01-14T11:05:48.414Z,5.89
2019-01-14T11:06:48.416Z,5.93
2019-01-14T11:07:48.390Z,5.94
2019-01-14T11:08:48.374Z,5.96
2019-01-14T11:09:49.449Z,5.91
2019-01-14T11:10:48.348Z,5.94
2019-01-14T11:11:48.337Z,5.9
2019-01-14T11:12:48.321Z,5.86
2019-01-14T11:13:48.306Z,6.03
2019-01-14T11:14:48.302Z,5.93
2019-01-14T11:15:48.281Z,6.11
2019-01-14T11:16:48.268Z,6.09
2019-01-14T11:17:48.263Z,6.08
2019-01-14T11:18:48.244Z,6.04
2019-01-14T11:19:48.226Z,6.03
2019-01-14T11:20:48.218Z,6.09
2019-01-14T11:21:48.206Z,6.03
2019-01-14T11:22:48.187Z,5.99
2019-01-14T11:23:48.176Z,6.04
2019-01-14T11:24:48.165Z,6.04
2019-01-14T11:25:48.152Z,6.06
2019-01-14T11:26:48.136Z,6.09
2019-01-14T11:27:48.125Z,6.08
2019-01-14T11:28:48.116Z,6.17
2019-01-14T11:29:48.097Z,6.15
2019-01-14T11:30:48.086Z,6.14
2019-01-14T11:31:48.078Z,6.21
2019-01-14T11:32:48.060Z,6.15
2019-01-14T11:33:48.045Z,6.25
2019-01-14T11:34:48.040Z,6.36
2019-01-14T11:35:48.025Z,6.51
2019-01-14T11:36:48.011Z,6.48
2019-01-14T11:37:47.997Z,6.56
2019-01-14T11:38:47.984Z,6.61
2019-01-14T11:39:47.968Z,6.58
2019-01-14T11:40:47.958Z,6.74
2019-01-14T11:41:47.944Z,6.73
2019-01-14T11:42:47.930Z,6.69
2019-01-14T11:43:47.923Z,6.84
2019-01-14T11:44:47.905Z,6.88
2019-01-14T11:45:47.944Z,6.88
2019-01-14T11:46:47.883Z,6.85
2019-01-14T11:47:47.871Z,6.81
2019-01-14T11:48:47.856Z,6.87
2019-01-14T11:49:47.600Z,6.84
2019-01-14T11:50:47.833Z,6.84
2019-01-14T11:51:47.818Z,6.95
2019-01-14T11:52:47.805Z,6.95
2019-01-14T11:53:47.794Z,6.85
2019-01-14T11:54:47.794Z,6.81
2019-01-14T11:55:47.770Z,6.8
2019-01-14T11:56:47.765Z,6.7
2019-01-14T11:57:47.746Z,6.64
2019-01-14T11:58:47.737Z,6.61
2019-01-14T11:59:47.720Z,6.55
2019-01-14T12:00:47.707Z,6.55
2019-01-14T12:01:47.695Z,6.58
2019-01-14T12:02:47.684Z,6.58
2019-01-14T12:03:47.672Z,6.49
2019-01-14T12:04:47.661Z,6.52
2019-01-14T12:05:47.646Z,6.36
2019-01-14T12:06:47.631Z,6.37
2019-01-14T12:07:47.620Z,6.38
2019-01-14T12:08:47.612Z,6.37
2019-01-14T12:09:47.600Z,6.34
2019-01-14T12:10:47.583Z,6.27
2019-01-14T12:11:47.572Z,6.15
2019-01-14T12:12:47.558Z,6
2019-01-14T12:13:47.544Z,6.06
2019-01-14T12:14:47.531Z,5.97
2019-01-14T12:15:47.518Z,5.89
2019-01-14T12:16:47.504Z,5.82
2019-01-14T12:17:47.498Z,5.79
2019-01-14T12:18:47.492Z,5.76
2019-01-14T12:19:47.470Z,5.81
2019-01-14T12:20:47.459Z,5.72
2019-01-14T12:21:47.445Z,5.75
2019-01-14T12:22:47.428Z,5.67
2019-01-14T12:23:47.415Z,5.53
2019-01-14T12:24:47.404Z,5.56
2019-01-14T12:25:47.391Z,5.58
2019-01-14T12:26:47.379Z,5.56
2019-01-14T12:27:47.360Z,5.57
2019-01-14T12:28:47.350Z,5.56
2019-01-14T12:29:47.341Z,5.56
2019-01-14T12:30:47.324Z,5.51
2019-01-14T12:31:47.323Z,5.49
2019-01-14T12:32:47.301Z,5.45
2019-01-14T12:33:47.283Z,5.57
2019-01-14T12:34:47.277Z,5.61
2019-01-14T12:35:47.255Z,5.58
2019-01-14T12:36:47.244Z,5.57
2019-01-14T12:37:47.230Z,5.6
2019-01-14T12:38:47.216Z,5.6
2019-01-14T12:39:47.206Z,5.67
2019-01-14T12:40:47.201Z,5.63
2019-01-14T12:41:53.532Z,5.65
2019-01-14T12:42:47.168Z,5.53
2019-01-14T12:43:47.151Z,5.58
2019-01-14T12:44:47.136Z,5.57
2019-01-14T12:45:47.122Z,5.71
2019-01-14T12:46:47.116Z,5.57
2019-01-14T12:47:47.103Z,5.6
2019-01-14T12:48:47.083Z,5.61
2019-01-14T12:49:47.073Z,5.53
2019-01-14T12:50:47.060Z,5.48
2019-01-14T12:51:47.046Z,5.53
2019-01-14T12:52:47.037Z,5.45
2019-01-14T12:53:47.020Z,5.45
2019-01-14T12:54:47.005Z,5.39
2019-01-14T12:55:47.001Z,5.36
2019-01-14T12:56:46.979Z,5.43
2019-01-14T12:57:47.037Z,5.54
2019-01-14T12:58:46.709Z,5.48
2019-01-14T12:59:46.937Z,5.56
2019-01-14T13:00:46.924Z,5.49
2019-01-14T13:01:46.914Z,5.42
2019-01-14T13:02:46.901Z,5.39
2019-01-14T13:03:46.893Z,5.38
2019-01-14T13:04:46.870Z,5.38
2019-01-14T13:05:46.858Z,5.28
2019-01-14T13:06:46.843Z,5.33
2019-01-14T13:07:46.828Z,5.25
2019-01-14T13:08:46.820Z,5.28
2019-01-14T13:09:46.801Z,5.3
2019-01-14T13:10:46.788Z,5.25
2019-01-14T13:11:46.776Z,5.27
2019-01-14T13:12:46.758Z,5.27
2019-01-14T13:13:46.747Z,5.24
2019-01-14T13:14:46.732Z,5.27
2019-01-14T13:15:46.720Z,5.15
2019-01-14T13:16:46.710Z,5.2
2019-01-14T13:17:46.692Z,5.28
2019-01-14T13:18:46.680Z,5.21
2019-01-14T13:19:46.670Z,5.24
2019-01-14T13:20:46.653Z,5.25
2019-01-14T13:21:46.636Z,5.21